sensor_id;sensor_type;location;lat;lon;timestamp;P1;durP1;ratioP1;P2;durP2;ratioP2
50161;SDS011;36061;48.116;11.612;2023-02-13T00:01:22;16.00;;;7.87;;
50161;SDS011;36061;48.116;11.612;2023-02-13T00:03:50;13.40;;;7.53;;
50161;SDS011;36061;48.116;11.612;2023-02-13T00:06:17;15.93;;;7.90;;
50161;SDS011;36061;48.116;11.612;2023-02-13T00:08:46;14.50;;;8.27;;
50161;SDS011;36061;48.116;11.612;2023-02-13T00:11:13;17.17;;;8.83;;
50161;SDS011;36061;48.116;11.612;2023-02-13T00:13:40;21.60;;;8.93;;
50161;SDS011;36061;48.116;11.612;2023-02-13T00:16:08;22.53;;;8.17;;
50161;SDS011;36061;48.116;11.612;2023-02-13T00:18:36;28.17;;;9.63;;
50161;SDS011;36061;48.116;11.612;2023-02-13T00:21:05;15.50;;;8.60;;
50161;SDS011;36061;48.116;11.612;2023-02-13T00:23:33;17.77;;;8.23;;
50161;SDS011;36061;48.116;11.612;2023-02-13T00:26:05;24.73;;;9.97;;
50161;SDS011;36061;48.116;11.612;2023-02-13T00:28:34;23.27;;;8.90;;
50161;SDS011;36061;48.116;11.612;2023-02-13T00:31:03;17.33;;;7.57;;
50161;SDS011;36061;48.116;11.612;2023-02-13T00:33:31;16.43;;;8.00;;
50161;SDS011;36061;48.116;11.612;2023-02-13T00:36:05;16.37;;;8.43;;
50161;SDS011;36061;48.116;11.612;2023-02-13T00:38:34;21.53;;;9.67;;
50161;SDS011;36061;48.116;11.612;2023-02-13T00:41:02;24.53;;;9.43;;
50161;SDS011;36061;48.116;11.612;2023-02-13T00:43:31;22.30;;;9.40;;
50161;SDS011;36061;48.116;11.612;2023-02-13T00:45:58;16.53;;;8.77;;
50161;SDS011;36061;48.116;11.612;2023-02-13T00:48:26;20.60;;;8.97;;
50161;SDS011;36061;48.116;11.612;2023-02-13T00:50:54;17.63;;;8.97;;
50161;SDS011;36061;48.116;11.612;2023-02-13T00:53:22;20.30;;;9.83;;
50161;SDS011;36061;48.116;11.612;2023-02-13T00:55:51;17.30;;;9.63;;
50161;SDS011;36061;48.116;11.612;2023-02-13T00:58:18;19.00;;;8.93;;
50161;SDS011;36061;48.116;11.612;2023-02-13T01:00:47;20.13;;;10.17;;
50161;SDS011;36061;48.116;11.612;2023-02-13T01:03:16;19.03;;;10.30;;
50161;SDS011;36061;48.116;11.612;2023-02-13T01:05:44;20.53;;;10.07;;
50161;SDS011;36061;48.116;11.612;2023-02-13T01:08:12;18.87;;;9.97;;
50161;SDS011;36061;48.116;11.612;2023-02-13T01:10:41;19.33;;;10.03;;
50161;SDS011;36061;48.116;11.612;2023-02-13T01:13:10;20.20;;;9.40;;
50161;SDS011;36061;48.116;11.612;2023-02-13T01:15:38;19.97;;;9.57;;
50161;SDS011;36061;48.116;11.612;2023-02-13T01:18:07;21.90;;;10.00;;
50161;SDS011;36061;48.116;11.612;2023-02-13T01:20:35;21.27;;;9.80;;
50161;SDS011;36061;48.116;11.612;2023-02-13T01:23:02;22.80;;;9.33;;
50161;SDS011;36061;48.116;11.612;2023-02-13T01:25:30;23.87;;;10.20;;
50161;SDS011;36061;48.116;11.612;2023-02-13T01:27:57;21.33;;;10.13;;
50161;SDS011;36061;48.116;11.612;2023-02-13T01:30:24;20.00;;;10.50;;
50161;SDS011;36061;48.116;11.612;2023-02-13T01:32:53;21.00;;;10.17;;
50161;SDS011;36061;48.116;11.612;2023-02-13T01:35:22;23.13;;;9.57;;
50161;SDS011;36061;48.116;11.612;2023-02-13T01:37:49;26.60;;;9.00;;
50161;SDS011;36061;48.116;11.612;2023-02-13T01:40:16;28.13;;;9.77;;
50161;SDS011;36061;48.116;11.612;2023-02-13T01:42:44;25.33;;;9.97;;
50161;SDS011;36061;48.116;11.612;2023-02-13T01:45:19;20.83;;;9.90;;
50161;SDS011;36061;48.116;11.612;2023-02-13T01:47:52;21.53;;;8.83;;
50161;SDS011;36061;48.116;11.612;2023-02-13T01:50:26;26.73;;;10.67;;
50161;SDS011;36061;48.116;11.612;2023-02-13T01:52:59;18.07;;;10.03;;
50161;SDS011;36061;48.116;11.612;2023-02-13T01:55:29;19.70;;;9.87;;
50161;SDS011;36061;48.116;11.612;2023-02-13T01:58:00;25.80;;;9.60;;
50161;SDS011;36061;48.116;11.612;2023-02-13T02:00:32;21.73;;;10.93;;
50161;SDS011;36061;48.116;11.612;2023-02-13T02:03:01;19.00;;;9.63;;
50161;SDS011;36061;48.116;11.612;2023-02-13T02:05:34;19.03;;;10.07;;
50161;SDS011;36061;48.116;11.612;2023-02-13T02:08:03;19.23;;;9.50;;
50161;SDS011;36061;48.116;11.612;2023-02-13T02:10:35;20.87;;;10.50;;
50161;SDS011;36061;48.116;11.612;2023-02-13T02:13:05;18.67;;;9.50;;
50161;SDS011;36061;48.116;11.612;2023-02-13T02:15:37;17.83;;;9.73;;
50161;SDS011;36061;48.116;11.612;2023-02-13T02:18:05;16.97;;;8.73;;
50161;SDS011;36061;48.116;11.612;2023-02-13T02:20:55;17.47;;;9.43;;
50161;SDS011;36061;48.116;11.612;2023-02-13T02:23:58;15.80;;;8.10;;
50161;SDS011;36061;48.116;11.612;2023-02-13T02:30:02;15.53;;;8.23;;
50161;SDS011;36061;48.116;11.612;2023-02-13T02:32:57;14.07;;;7.73;;
50161;SDS011;36061;48.116;11.612;2023-02-13T02:35:34;17.50;;;8.47;;
50161;SDS011;36061;48.116;11.612;2023-02-13T02:38:11;17.17;;;8.90;;
50161;SDS011;36061;48.116;11.612;2023-02-13T02:40:52;16.63;;;8.00;;
50161;SDS011;36061;48.116;11.612;2023-02-13T02:43:33;13.60;;;7.40;;
50161;SDS011;36061;48.116;11.612;2023-02-13T02:46:11;16.03;;;8.13;;
50161;SDS011;36061;48.116;11.612;2023-02-13T02:48:46;14.60;;;8.60;;
50161;SDS011;36061;48.116;11.612;2023-02-13T02:51:39;14.27;;;7.23;;
50161;SDS011;36061;48.116;11.612;2023-02-13T02:54:15;14.83;;;7.63;;
50161;SDS011;36061;48.116;11.612;2023-02-13T02:57:06;13.83;;;6.97;;
50161;SDS011;36061;48.116;11.612;2023-02-13T02:59:40;14.17;;;7.73;;
50161;SDS011;36061;48.116;11.612;2023-02-13T03:02:37;15.47;;;7.63;;
50161;SDS011;36061;48.116;11.612;2023-02-13T03:05:25;22.57;;;7.87;;
50161;SDS011;36061;48.116;11.612;2023-02-13T03:08:13;11.57;;;6.57;;
50161;SDS011;36061;48.116;11.612;2023-02-13T03:11:01;14.07;;;6.60;;
50161;SDS011;36061;48.116;11.612;2023-02-13T03:13:46;13.20;;;7.57;;
50161;SDS011;36061;48.116;11.612;2023-02-13T03:16:16;13.20;;;8.47;;
50161;SDS011;36061;48.116;11.612;2023-02-13T03:19:16;13.80;;;7.37;;
50161;SDS011;36061;48.116;11.612;2023-02-13T03:22:13;12.67;;;7.23;;
50161;SDS011;36061;48.116;11.612;2023-02-13T03:24:57;11.00;;;6.23;;
50161;SDS011;36061;48.116;11.612;2023-02-13T03:27:33;12.57;;;7.40;;
50161;SDS011;36061;48.116;11.612;2023-02-13T03:30:29;13.23;;;7.00;;
50161;SDS011;36061;48.116;11.612;2023-02-13T03:33:08;12.13;;;6.93;;
50161;SDS011;36061;48.116;11.612;2023-02-13T03:35:44;16.17;;;7.70;;
50161;SDS011;36061;48.116;11.612;2023-02-13T03:38:35;13.83;;;7.30;;
50161;SDS011;36061;48.116;11.612;2023-02-13T03:41:10;13.97;;;7.40;;
50161;SDS011;36061;48.116;11.612;2023-02-13T03:43:46;13.17;;;7.20;;
50161;SDS011;36061;48.116;11.612;2023-02-13T03:46:33;11.60;;;6.17;;
50161;SDS011;36061;48.116;11.612;2023-02-13T03:49:05;12.03;;;7.13;;
50161;SDS011;36061;48.116;11.612;2023-02-13T03:51:55;12.80;;;7.90;;
50161;SDS011;36061;48.116;11.612;2023-02-13T03:54:30;16.30;;;6.50;;
50161;SDS011;36061;48.116;11.612;2023-02-13T03:57:20;13.17;;;6.40;;
50161;SDS011;36061;48.116;11.612;2023-02-13T04:00:09;12.43;;;6.93;;
50161;SDS011;36061;48.116;11.612;2023-02-13T04:02:43;13.67;;;6.57;;
50161;SDS011;36061;48.116;11.612;2023-02-13T04:05:17;13.30;;;7.40;;
50161;SDS011;36061;48.116;11.612;2023-02-13T04:07:47;9.43;;;5.77;;
50161;SDS011;36061;48.116;11.612;2023-02-13T04:10:16;9.77;;;5.83;;
50161;SDS011;36061;48.116;11.612;2023-02-13T04:12:47;8.30;;;5.83;;
50161;SDS011;36061;48.116;11.612;2023-02-13T04:15:23;7.70;;;5.17;;
50161;SDS011;36061;48.116;11.612;2023-02-13T04:17:55;9.50;;;6.30;;
50161;SDS011;36061;48.116;11.612;2023-02-13T04:20:29;10.77;;;5.87;;
50161;SDS011;36061;48.116;11.612;2023-02-13T04:23:02;11.20;;;6.80;;
50161;SDS011;36061;48.116;11.612;2023-02-13T04:25:32;8.83;;;5.67;;
50161;SDS011;36061;48.116;11.612;2023-02-13T04:28:01;10.67;;;6.20;;
50161;SDS011;36061;48.116;11.612;2023-02-13T04:30:28;12.13;;;6.50;;
50161;SDS011;36061;48.116;11.612;2023-02-13T04:32:56;9.07;;;5.93;;
50161;SDS011;36061;48.116;11.612;2023-02-13T04:35:23;10.87;;;6.63;;
50161;SDS011;36061;48.116;11.612;2023-02-13T04:37:50;15.37;;;6.43;;
50161;SDS011;36061;48.116;11.612;2023-02-13T04:40:18;9.73;;;6.67;;
50161;SDS011;36061;48.116;11.612;2023-02-13T04:42:47;12.50;;;7.60;;
50161;SDS011;36061;48.116;11.612;2023-02-13T04:45:15;12.73;;;6.60;;
50161;SDS011;36061;48.116;11.612;2023-02-13T04:47:42;12.93;;;7.23;;
50161;SDS011;36061;48.116;11.612;2023-02-13T04:50:15;10.43;;;6.93;;
50161;SDS011;36061;48.116;11.612;2023-02-13T04:52:43;9.73;;;6.30;;
50161;SDS011;36061;48.116;11.612;2023-02-13T04:55:10;11.03;;;6.90;;
50161;SDS011;36061;48.116;11.612;2023-02-13T04:57:38;13.70;;;7.97;;
50161;SDS011;36061;48.116;11.612;2023-02-13T05:00:07;13.47;;;7.70;;
50161;SDS011;36061;48.116;11.612;2023-02-13T05:02:36;12.37;;;7.20;;
50161;SDS011;36061;48.116;11.612;2023-02-13T05:05:03;13.70;;;7.97;;
50161;SDS011;36061;48.116;11.612;2023-02-13T05:07:30;11.20;;;6.93;;
50161;SDS011;36061;48.116;11.612;2023-02-13T05:09:58;10.27;;;6.90;;
50161;SDS011;36061;48.116;11.612;2023-02-13T05:12:25;11.23;;;7.10;;
50161;SDS011;36061;48.116;11.612;2023-02-13T05:14:52;13.30;;;7.93;;
50161;SDS011;36061;48.116;11.612;2023-02-13T05:17:21;16.10;;;8.63;;
50161;SDS011;36061;48.116;11.612;2023-02-13T05:19:48;15.47;;;8.57;;
50161;SDS011;36061;48.116;11.612;2023-02-13T05:22:15;16.37;;;8.73;;
50161;SDS011;36061;48.116;11.612;2023-02-13T05:25:00;12.80;;;7.83;;
50161;SDS011;36061;48.116;11.612;2023-02-13T05:27:27;12.23;;;7.47;;
50161;SDS011;36061;48.116;11.612;2023-02-13T05:29:54;12.50;;;7.60;;
50161;SDS011;36061;48.116;11.612;2023-02-13T05:32:23;14.57;;;7.40;;
50161;SDS011;36061;48.116;11.612;2023-02-13T05:34:50;13.57;;;8.67;;
50161;SDS011;36061;48.116;11.612;2023-02-13T05:37:17;15.97;;;8.20;;
50161;SDS011;36061;48.116;11.612;2023-02-13T05:39:45;14.93;;;8.70;;
50161;SDS011;36061;48.116;11.612;2023-02-13T05:42:12;14.73;;;7.97;;
50161;SDS011;36061;48.116;11.612;2023-02-13T05:44:39;12.37;;;7.20;;
50161;SDS011;36061;48.116;11.612;2023-02-13T05:47:06;14.93;;;8.23;;
50161;SDS011;36061;48.116;11.612;2023-02-13T05:49:35;13.97;;;8.17;;
50161;SDS011;36061;48.116;11.612;2023-02-13T05:52:02;14.83;;;7.80;;
50161;SDS011;36061;48.116;11.612;2023-02-13T05:54:29;15.27;;;8.70;;
50161;SDS011;36061;48.116;11.612;2023-02-13T05:56:57;15.50;;;9.53;;
50161;SDS011;36061;48.116;11.612;2023-02-13T05:59:24;18.13;;;9.27;;
50161;SDS011;36061;48.116;11.612;2023-02-13T06:01:51;14.87;;;7.80;;
50161;SDS011;36061;48.116;11.612;2023-02-13T06:04:19;15.33;;;8.83;;
50161;SDS011;36061;48.116;11.612;2023-02-13T06:06:47;15.67;;;8.70;;
50161;SDS011;36061;48.116;11.612;2023-02-13T06:09:14;14.50;;;8.70;;
50161;SDS011;36061;48.116;11.612;2023-02-13T06:11:41;19.08;;;11.05;;
50161;SDS011;36061;48.116;11.612;2023-02-13T06:14:09;17.37;;;9.27;;
50161;SDS011;36061;48.116;11.612;2023-02-13T06:16:38;13.13;;;8.30;;
50161;SDS011;36061;48.116;11.612;2023-02-13T06:19:06;16.33;;;9.57;;
50161;SDS011;36061;48.116;11.612;2023-02-13T06:21:33;16.77;;;9.33;;
50161;SDS011;36061;48.116;11.612;2023-02-13T06:24:04;16.80;;;9.67;;
50161;SDS011;36061;48.116;11.612;2023-02-13T06:26:32;18.03;;;9.23;;
50161;SDS011;36061;48.116;11.612;2023-02-13T06:28:59;17.60;;;9.07;;
50161;SDS011;36061;48.116;11.612;2023-02-13T06:31:26;13.43;;;8.60;;
50161;SDS011;36061;48.116;11.612;2023-02-13T06:33:53;18.07;;;9.50;;
50161;SDS011;36061;48.116;11.612;2023-02-13T06:36:21;17.47;;;9.70;;
50161;SDS011;36061;48.116;11.612;2023-02-13T06:38:48;17.77;;;10.03;;
50161;SDS011;36061;48.116;11.612;2023-02-13T06:41:17;17.27;;;10.00;;
50161;SDS011;36061;48.116;11.612;2023-02-13T06:43:44;19.53;;;10.27;;
50161;SDS011;36061;48.116;11.612;2023-02-13T06:46:11;13.40;;;8.60;;
50161;SDS011;36061;48.116;11.612;2023-02-13T06:48:38;8.77;;;4.50;;
50161;SDS011;36061;48.116;11.612;2023-02-13T06:51:06;11.40;;;7.00;;
50161;SDS011;36061;48.116;11.612;2023-02-13T06:53:33;18.27;;;8.87;;
50161;SDS011;36061;48.116;11.612;2023-02-13T06:56:02;12.60;;;7.70;;
50161;SDS011;36061;48.116;11.612;2023-02-13T06:58:31;11.47;;;6.97;;
50161;SDS011;36061;48.116;11.612;2023-02-13T07:00:59;14.00;;;7.93;;
50161;SDS011;36061;48.116;11.612;2023-02-13T07:03:26;13.57;;;8.23;;
50161;SDS011;36061;48.116;11.612;2023-02-13T07:05:53;13.10;;;8.87;;
50161;SDS011;36061;48.116;11.612;2023-02-13T07:08:21;13.77;;;8.27;;
50161;SDS011;36061;48.116;11.612;2023-02-13T07:10:48;14.07;;;8.20;;
50161;SDS011;36061;48.116;11.612;2023-02-13T07:13:15;17.00;;;9.60;;
50161;SDS011;36061;48.116;11.612;2023-02-13T07:15:44;18.73;;;9.33;;
50161;SDS011;36061;48.116;11.612;2023-02-13T07:18:11;17.13;;;9.50;;
50161;SDS011;36061;48.116;11.612;2023-02-13T07:20:38;13.33;;;7.93;;
50161;SDS011;36061;48.116;11.612;2023-02-13T07:23:06;17.97;;;10.47;;
50161;SDS011;36061;48.116;11.612;2023-02-13T07:25:33;18.10;;;9.63;;
50161;SDS011;36061;48.116;11.612;2023-02-13T07:28:00;18.70;;;9.60;;
50161;SDS011;36061;48.116;11.612;2023-02-13T07:30:29;16.47;;;10.00;;
50161;SDS011;36061;48.116;11.612;2023-02-13T07:33:01;14.73;;;8.43;;
50161;SDS011;36061;48.116;11.612;2023-02-13T07:35:29;18.47;;;9.97;;
50161;SDS011;36061;48.116;11.612;2023-02-13T07:37:57;19.53;;;10.07;;
50161;SDS011;36061;48.116;11.612;2023-02-13T07:40:24;21.17;;;10.13;;
50161;SDS011;36061;48.116;11.612;2023-02-13T07:42:52;18.73;;;9.97;;
50161;SDS011;36061;48.116;11.612;2023-02-13T07:45:19;16.87;;;9.47;;
50161;SDS011;36061;48.116;11.612;2023-02-13T07:47:46;16.93;;;9.30;;
50161;SDS011;36061;48.116;11.612;2023-02-13T07:50:15;18.63;;;9.53;;
50161;SDS011;36061;48.116;11.612;2023-02-13T07:52:42;18.00;;;9.40;;
50161;SDS011;36061;48.116;11.612;2023-02-13T07:55:09;17.93;;;10.20;;
50161;SDS011;36061;48.116;11.612;2023-02-13T07:57:36;17.73;;;9.97;;
50161;SDS011;36061;48.116;11.612;2023-02-13T08:00:04;18.93;;;9.83;;
50161;SDS011;36061;48.116;11.612;2023-02-13T08:02:37;16.63;;;9.47;;
50161;SDS011;36061;48.116;11.612;2023-02-13T08:05:04;18.50;;;9.43;;
50161;SDS011;36061;48.116;11.612;2023-02-13T08:07:34;17.00;;;9.63;;
50161;SDS011;36061;48.116;11.612;2023-02-13T08:10:01;21.33;;;9.87;;
50161;SDS011;36061;48.116;11.612;2023-02-13T08:12:46;19.73;;;11.27;;
50161;SDS011;36061;48.116;11.612;2023-02-13T08:15:14;16.67;;;9.23;;
50161;SDS011;36061;48.116;11.612;2023-02-13T08:17:41;17.30;;;9.73;;
50161;SDS011;36061;48.116;11.612;2023-02-13T08:20:09;18.03;;;10.20;;
50161;SDS011;36061;48.116;11.612;2023-02-13T08:22:38;19.77;;;11.07;;
50161;SDS011;36061;48.116;11.612;2023-02-13T08:25:05;22.43;;;10.93;;
50161;SDS011;36061;48.116;11.612;2023-02-13T08:27:33;19.40;;;10.97;;
50161;SDS011;36061;48.116;11.612;2023-02-13T08:30:00;17.17;;;10.30;;
50161;SDS011;36061;48.116;11.612;2023-02-13T08:32:27;16.50;;;10.20;;
50161;SDS011;36061;48.116;11.612;2023-02-13T08:34:54;19.17;;;9.57;;
50161;SDS011;36061;48.116;11.612;2023-02-13T08:37:22;19.23;;;10.23;;
50161;SDS011;36061;48.116;11.612;2023-02-13T08:39:51;18.73;;;9.90;;
50161;SDS011;36061;48.116;11.612;2023-02-13T08:42:18;19.03;;;9.93;;
50161;SDS011;36061;48.116;11.612;2023-02-13T08:44:45;17.70;;;10.37;;
50161;SDS011;36061;48.116;11.612;2023-02-13T08:47:13;17.03;;;10.10;;
50161;SDS011;36061;48.116;11.612;2023-02-13T08:49:40;20.53;;;10.33;;
50161;SDS011;36061;48.116;11.612;2023-02-13T08:52:07;19.87;;;10.77;;
50161;SDS011;36061;48.116;11.612;2023-02-13T08:54:35;17.97;;;9.77;;
50161;SDS011;36061;48.116;11.612;2023-02-13T08:57:03;18.83;;;10.87;;
50161;SDS011;36061;48.116;11.612;2023-02-13T08:59:30;17.57;;;9.90;;
50161;SDS011;36061;48.116;11.612;2023-02-13T09:01:58;22.17;;;10.37;;
50161;SDS011;36061;48.116;11.612;2023-02-13T09:04:25;18.17;;;10.63;;
50161;SDS011;36061;48.116;11.612;2023-02-13T09:06:52;20.77;;;10.50;;
50161;SDS011;36061;48.116;11.612;2023-02-13T09:09:19;19.47;;;9.93;;
50161;SDS011;36061;48.116;11.612;2023-02-13T09:11:47;19.40;;;10.43;;
50161;SDS011;36061;48.116;11.612;2023-02-13T09:14:16;20.77;;;10.33;;
50161;SDS011;36061;48.116;11.612;2023-02-13T09:16:43;21.63;;;10.13;;
50161;SDS011;36061;48.116;11.612;2023-02-13T09:19:10;21.93;;;11.27;;
50161;SDS011;36061;48.116;11.612;2023-02-13T09:21:38;17.37;;;10.37;;
50161;SDS011;36061;48.116;11.612;2023-02-13T09:24:06;19.50;;;10.40;;
50161;SDS011;36061;48.116;11.612;2023-02-13T09:26:33;21.57;;;10.90;;
50161;SDS011;36061;48.116;11.612;2023-02-13T09:29:00;23.13;;;10.47;;
50161;SDS011;36061;48.116;11.612;2023-02-13T09:31:29;22.40;;;11.13;;
50161;SDS011;36061;48.116;11.612;2023-02-13T09:33:56;24.37;;;10.67;;
50161;SDS011;36061;48.116;11.612;2023-02-13T09:36:24;21.50;;;10.50;;
50161;SDS011;36061;48.116;11.612;2023-02-13T09:38:51;23.67;;;11.27;;
50161;SDS011;36061;48.116;11.612;2023-02-13T09:41:21;22.13;;;11.40;;
50161;SDS011;36061;48.116;11.612;2023-02-13T09:43:49;21.50;;;10.63;;
50161;SDS011;36061;48.116;11.612;2023-02-13T09:46:21;19.47;;;11.07;;
50161;SDS011;36061;48.116;11.612;2023-02-13T09:48:54;25.17;;;12.50;;
50161;SDS011;36061;48.116;11.612;2023-02-13T09:51:24;18.70;;;11.70;;
50161;SDS011;36061;48.116;11.612;2023-02-13T09:53:53;26.07;;;12.53;;
50161;SDS011;36061;48.116;11.612;2023-02-13T09:56:26;20.53;;;11.67;;
50161;SDS011;36061;48.116;11.612;2023-02-13T09:59:05;19.90;;;10.53;;
50161;SDS011;36061;48.116;11.612;2023-02-13T10:01:44;18.73;;;11.17;;
50161;SDS011;36061;48.116;11.612;2023-02-13T10:07:12;19.60;;;11.10;;
50161;SDS011;36061;48.116;11.612;2023-02-13T10:09:47;19.67;;;11.23;;
50161;SDS011;36061;48.116;11.612;2023-02-13T10:12:24;18.90;;;10.70;;
50161;SDS011;36061;48.116;11.612;2023-02-13T10:15:02;22.57;;;10.97;;
50161;SDS011;36061;48.116;11.612;2023-02-13T10:17:37;21.10;;;10.97;;
50161;SDS011;36061;48.116;11.612;2023-02-13T10:20:14;25.43;;;11.80;;
50161;SDS011;36061;48.116;11.612;2023-02-13T10:22:50;23.73;;;12.50;;
50161;SDS011;36061;48.116;11.612;2023-02-13T10:25:24;22.47;;;11.90;;
50161;SDS011;36061;48.116;11.612;2023-02-13T10:27:54;22.60;;;11.77;;
50161;SDS011;36061;48.116;11.612;2023-02-13T10:30:27;21.53;;;11.10;;
50161;SDS011;36061;48.116;11.612;2023-02-13T10:32:58;23.60;;;11.20;;
50161;SDS011;36061;48.116;11.612;2023-02-13T10:35:48;21.43;;;10.80;;
50161;SDS011;36061;48.116;11.612;2023-02-13T10:38:20;21.77;;;11.87;;
50161;SDS011;36061;48.116;11.612;2023-02-13T10:43:52;23.50;;;11.47;;
50161;SDS011;36061;48.116;11.612;2023-02-13T10:46:34;23.60;;;12.43;;
50161;SDS011;36061;48.116;11.612;2023-02-13T10:52:01;24.80;;;13.03;;
50161;SDS011;36061;48.116;11.612;2023-02-13T10:54:47;24.37;;;11.90;;
50161;SDS011;36061;48.116;11.612;2023-02-13T10:57:26;26.83;;;11.87;;
50161;SDS011;36061;48.116;11.612;2023-02-13T11:00:02;29.73;;;14.23;;
50161;SDS011;36061;48.116;11.612;2023-02-13T11:02:35;24.87;;;12.43;;
50161;SDS011;36061;48.116;11.612;2023-02-13T11:05:10;22.77;;;11.83;;
50161;SDS011;36061;48.116;11.612;2023-02-13T11:07:43;25.00;;;13.00;;
50161;SDS011;36061;48.116;11.612;2023-02-13T11:10:13;27.93;;;11.77;;
50161;SDS011;36061;48.116;11.612;2023-02-13T11:12:44;22.20;;;11.87;;
50161;SDS011;36061;48.116;11.612;2023-02-13T11:15:22;21.83;;;12.00;;
50161;SDS011;36061;48.116;11.612;2023-02-13T11:17:51;23.40;;;11.93;;
50161;SDS011;36061;48.116;11.612;2023-02-13T11:20:22;18.10;;;11.47;;
50161;SDS011;36061;48.116;11.612;2023-02-13T11:22:54;25.60;;;11.70;;
50161;SDS011;36061;48.116;11.612;2023-02-13T11:25:23;23.60;;;11.10;;
50161;SDS011;36061;48.116;11.612;2023-02-13T11:27:54;21.03;;;11.77;;
50161;SDS011;36061;48.116;11.612;2023-02-13T11:30:37;23.03;;;11.83;;
50161;SDS011;36061;48.116;11.612;2023-02-13T11:33:05;21.00;;;11.83;;
50161;SDS011;36061;48.116;11.612;2023-02-13T11:35:43;26.43;;;12.43;;
50161;SDS011;36061;48.116;11.612;2023-02-13T11:38:21;20.50;;;11.23;;
50161;SDS011;36061;48.116;11.612;2023-02-13T11:40:50;24.30;;;12.77;;
50161;SDS011;36061;48.116;11.612;2023-02-13T11:43:21;23.83;;;12.17;;
50161;SDS011;36061;48.116;11.612;2023-02-13T11:46:02;22.20;;;11.27;;
50161;SDS011;36061;48.116;11.612;2023-02-13T11:48:31;23.80;;;11.53;;
50161;SDS011;36061;48.116;11.612;2023-02-13T11:50:58;25.87;;;11.63;;
50161;SDS011;36061;48.116;11.612;2023-02-13T11:53:28;19.63;;;10.80;;
50161;SDS011;36061;48.116;11.612;2023-02-13T11:56:01;21.50;;;11.63;;
50161;SDS011;36061;48.116;11.612;2023-02-13T11:58:31;20.33;;;10.67;;
50161;SDS011;36061;48.116;11.612;2023-02-13T12:01:09;19.93;;;11.33;;
50161;SDS011;36061;48.116;11.612;2023-02-13T12:03:55;24.10;;;11.53;;
50161;SDS011;36061;48.116;11.612;2023-02-13T12:06:40;24.33;;;11.23;;
50161;SDS011;36061;48.116;11.612;2023-02-13T12:09:26;24.17;;;12.43;;
50161;SDS011;36061;48.116;11.612;2023-02-13T12:11:54;24.67;;;11.93;;
50161;SDS011;36061;48.116;11.612;2023-02-13T12:14:24;24.17;;;11.20;;
50161;SDS011;36061;48.116;11.612;2023-02-13T12:16:57;41.37;;;12.43;;
50161;SDS011;36061;48.116;11.612;2023-02-13T12:19:28;21.90;;;11.80;;
50161;SDS011;36061;48.116;11.612;2023-02-13T12:22:07;23.47;;;11.10;;
50161;SDS011;36061;48.116;11.612;2023-02-13T12:25:03;30.03;;;11.47;;
50161;SDS011;36061;48.116;11.612;2023-02-13T12:27:46;22.70;;;10.97;;
50161;SDS011;36061;48.116;11.612;2023-02-13T12:30:28;20.47;;;10.30;;
50161;SDS011;36061;48.116;11.612;2023-02-13T12:33:12;23.07;;;11.67;;
50161;SDS011;36061;48.116;11.612;2023-02-13T12:35:50;21.53;;;11.17;;
50161;SDS011;36061;48.116;11.612;2023-02-13T12:38:28;19.93;;;10.50;;
50161;SDS011;36061;48.116;11.612;2023-02-13T12:41:16;17.17;;;9.83;;
50161;SDS011;36061;48.116;11.612;2023-02-13T12:46:47;23.43;;;10.57;;
50161;SDS011;36061;48.116;11.612;2023-02-13T12:49:25;24.17;;;10.67;;
50161;SDS011;36061;48.116;11.612;2023-02-13T12:52:16;18.27;;;9.93;;
50161;SDS011;36061;48.116;11.612;2023-02-13T12:54:57;19.83;;;10.73;;
50161;SDS011;36061;48.116;11.612;2023-02-13T12:57:44;23.33;;;10.47;;
50161;SDS011;36061;48.116;11.612;2023-02-13T13:00:24;27.43;;;10.43;;
50161;SDS011;36061;48.116;11.612;2023-02-13T13:03:10;23.73;;;11.17;;
50161;SDS011;36061;48.116;11.612;2023-02-13T13:06:03;27.83;;;10.83;;
50161;SDS011;36061;48.116;11.612;2023-02-13T13:08:54;22.50;;;10.00;;
50161;SDS011;36061;48.116;11.612;2023-02-13T13:11:41;20.50;;;10.13;;
50161;SDS011;36061;48.116;11.612;2023-02-13T13:14:23;16.80;;;9.73;;
50161;SDS011;36061;48.116;11.612;2023-02-13T13:17:00;18.20;;;9.73;;
50161;SDS011;36061;48.116;11.612;2023-02-13T13:19:36;21.07;;;10.40;;
50161;SDS011;36061;48.116;11.612;2023-02-13T13:22:12;18.53;;;9.97;;
50161;SDS011;36061;48.116;11.612;2023-02-13T13:24:47;16.30;;;9.43;;
50161;SDS011;36061;48.116;11.612;2023-02-13T13:27:24;16.67;;;9.23;;
50161;SDS011;36061;48.116;11.612;2023-02-13T13:29:56;16.17;;;9.33;;
50161;SDS011;36061;48.116;11.612;2023-02-13T13:32:26;15.10;;;8.70;;
50161;SDS011;36061;48.116;11.612;2023-02-13T13:35:21;19.43;;;8.80;;
50161;SDS011;36061;48.116;11.612;2023-02-13T13:37:55;19.43;;;9.67;;
50161;SDS011;36061;48.116;11.612;2023-02-13T13:40:41;18.77;;;8.33;;
50161;SDS011;36061;48.116;11.612;2023-02-13T13:43:16;23.30;;;9.17;;
50161;SDS011;36061;48.116;11.612;2023-02-13T13:45:50;18.53;;;9.47;;
50161;SDS011;36061;48.116;11.612;2023-02-13T13:48:37;20.93;;;9.90;;
50161;SDS011;36061;48.116;11.612;2023-02-13T13:51:16;19.17;;;8.93;;
50161;SDS011;36061;48.116;11.612;2023-02-13T14:02:51;16.73;;;9.37;;
50161;SDS011;36061;48.116;11.612;2023-02-13T14:06:03;17.60;;;8.87;;
50161;SDS011;36061;48.116;11.612;2023-02-13T14:11:48;15.07;;;8.67;;
50161;SDS011;36061;48.116;11.612;2023-02-13T14:17:11;12.97;;;8.80;;
50161;SDS011;36061;48.116;11.612;2023-02-13T14:19:44;13.20;;;8.17;;
50161;SDS011;36061;48.116;11.612;2023-02-13T14:22:26;16.27;;;8.70;;
50161;SDS011;36061;48.116;11.612;2023-02-13T14:26:05;19.80;;;8.47;;
50161;SDS011;36061;48.116;11.612;2023-02-13T14:29:34;15.63;;;8.60;;
50161;SDS011;36061;48.116;11.612;2023-02-13T14:32:15;17.17;;;8.60;;
50161;SDS011;36061;48.116;11.612;2023-02-13T14:34:54;14.30;;;9.20;;
50161;SDS011;36061;48.116;11.612;2023-02-13T14:37:27;17.87;;;9.07;;
50161;SDS011;36061;48.116;11.612;2023-02-13T14:42:59;17.90;;;9.30;;
50161;SDS011;36061;48.116;11.612;2023-02-13T14:45:34;16.00;;;9.10;;
50161;SDS011;36061;48.116;11.612;2023-02-13T14:48:10;19.67;;;9.07;;
50161;SDS011;36061;48.116;11.612;2023-02-13T14:50:44;14.85;;;8.70;;
50161;SDS011;36061;48.116;11.612;2023-02-13T14:53:15;15.60;;;8.67;;
50161;SDS011;36061;48.116;11.612;2023-02-13T14:55:46;16.97;;;9.90;;
50161;SDS011;36061;48.116;11.612;2023-02-13T14:58:20;17.47;;;9.77;;
50161;SDS011;36061;48.116;11.612;2023-02-13T15:00:52;15.17;;;9.20;;
50161;SDS011;36061;48.116;11.612;2023-02-13T15:03:26;17.50;;;9.00;;
50161;SDS011;36061;48.116;11.612;2023-02-13T15:06:00;16.93;;;9.43;;
50161;SDS011;36061;48.116;11.612;2023-02-13T15:08:31;15.10;;;8.87;;
50161;SDS011;36061;48.116;11.612;2023-02-13T15:11:02;16.57;;;9.23;;
50161;SDS011;36061;48.116;11.612;2023-02-13T15:13:49;18.90;;;9.77;;
50161;SDS011;36061;48.116;11.612;2023-02-13T15:16:16;19.17;;;10.85;;
50161;SDS011;36061;48.116;11.612;2023-02-13T15:18:44;19.13;;;9.90;;
50161;SDS011;36061;48.116;11.612;2023-02-13T15:21:16;24.20;;;12.10;;
50161;SDS011;36061;48.116;11.612;2023-02-13T15:23:47;21.75;;;11.77;;